sensor_id;sensor_type;location;lat;lon;timestamp;P1;durP1;ratioP1;P2;durP2;ratioP2
24161;SDS011;12318;51.262;7.066;2022-08-05T00:01:18;9.38;;;3.63;;
24161;SDS011;12318;51.262;7.066;2022-08-05T00:06:29;9.43;;;2.92;;
24161;SDS011;12318;51.262;7.066;2022-08-05T00:08:55;7.68;;;2.90;;
24161;SDS011;12318;51.262;7.066;2022-08-05T00:11:21;6.03;;;2.97;;
24161;SDS011;12318;51.262;7.066;2022-08-05T00:13:48;7.43;;;2.75;;
24161;SDS011;12318;51.262;7.066;2022-08-05T00:16:14;6.25;;;3.50;;
24161;SDS011;12318;51.262;7.066;2022-08-05T00:18:44;11.07;;;3.60;;
24161;SDS011;12318;51.262;7.066;2022-08-05T00:21:11;5.95;;;3.30;;
24161;SDS011;12318;51.262;7.066;2022-08-05T00:23:49;5.45;;;3.15;;
24161;SDS011;12318;51.262;7.066;2022-08-05T00:26:16;12.65;;;3.42;;
24161;SDS011;12318;51.262;7.066;2022-08-05T00:28:42;8.88;;;3.80;;
24161;SDS011;12318;51.262;7.066;2022-08-05T00:31:08;8.63;;;3.42;;
24161;SDS011;12318;51.262;7.066;2022-08-05T00:33:34;6.85;;;3.47;;
24161;SDS011;12318;51.262;7.066;2022-08-05T00:36:00;10.45;;;3.95;;
24161;SDS011;12318;51.262;7.066;2022-08-05T00:38:25;10.30;;;3.42;;
24161;SDS011;12318;51.262;7.066;2022-08-05T00:40:53;7.38;;;3.50;;
24161;SDS011;12318;51.262;7.066;2022-08-05T00:43:22;10.20;;;3.17;;
24161;SDS011;12318;51.262;7.066;2022-08-05T00:45:48;7.22;;;3.75;;
24161;SDS011;12318;51.262;7.066;2022-08-05T00:48:18;10.45;;;3.55;;
24161;SDS011;12318;51.262;7.066;2022-08-05T00:50:46;8.25;;;3.30;;
24161;SDS011;12318;51.262;7.066;2022-08-05T00:53:13;8.13;;;3.47;;
24161;SDS011;12318;51.262;7.066;2022-08-05T00:55:40;8.18;;;3.70;;
24161;SDS011;12318;51.262;7.066;2022-08-05T00:58:06;9.63;;;4.10;;
24161;SDS011;12318;51.262;7.066;2022-08-05T01:00:32;11.90;;;4.10;;
24161;SDS011;12318;51.262;7.066;2022-08-05T01:02:58;11.32;;;3.92;;
24161;SDS011;12318;51.262;7.066;2022-08-05T01:05:34;6.75;;;3.63;;
24161;SDS011;12318;51.262;7.066;2022-08-05T01:08:03;9.32;;;3.90;;
24161;SDS011;12318;51.262;7.066;2022-08-05T01:10:31;9.60;;;4.18;;
24161;SDS011;12318;51.262;7.066;2022-08-05T01:19:11;9.63;;;3.45;;
24161;SDS011;12318;51.262;7.066;2022-08-05T01:30:13;8.27;;;3.78;;
24161;SDS011;12318;51.262;7.066;2022-08-05T01:32:40;8.15;;;4.05;;
24161;SDS011;12318;51.262;7.066;2022-08-05T01:35:21;7.45;;;3.88;;
24161;SDS011;12318;51.262;7.066;2022-08-05T01:37:54;9.63;;;4.80;;
24161;SDS011;12318;51.262;7.066;2022-08-05T01:42:55;9.15;;;3.88;;
24161;SDS011;12318;51.262;7.066;2022-08-05T01:48:11;6.75;;;3.33;;
24161;SDS011;12318;51.262;7.066;2022-08-05T01:50:40;7.15;;;3.17;;
24161;SDS011;12318;51.262;7.066;2022-08-05T01:53:06;7.47;;;3.50;;
24161;SDS011;12318;51.262;7.066;2022-08-05T01:55:47;6.43;;;3.58;;
24161;SDS011;12318;51.262;7.066;2022-08-05T01:58:17;7.80;;;2.90;;
24161;SDS011;12318;51.262;7.066;2022-08-05T02:00:47;9.13;;;3.63;;
24161;SDS011;12318;51.262;7.066;2022-08-05T02:03:22;13.23;;;2.90;;
24161;SDS011;12318;51.262;7.066;2022-08-05T02:05:58;7.50;;;3.20;;
24161;SDS011;12318;51.262;7.066;2022-08-05T02:08:26;9.45;;;3.15;;
24161;SDS011;12318;51.262;7.066;2022-08-05T02:10:53;6.13;;;3.47;;
24161;SDS011;12318;51.262;7.066;2022-08-05T02:13:48;9.50;;;3.53;;
24161;SDS011;12318;51.262;7.066;2022-08-05T02:16:31;7.05;;;3.53;;
24161;SDS011;12318;51.262;7.066;2022-08-05T02:21:44;6.53;;;2.67;;
24161;SDS011;12318;51.262;7.066;2022-08-05T02:24:50;4.72;;;2.67;;
24161;SDS011;12318;51.262;7.066;2022-08-05T02:27:23;7.00;;;3.17;;
24161;SDS011;12318;51.262;7.066;2022-08-05T02:29:58;7.13;;;3.08;;
24161;SDS011;12318;51.262;7.066;2022-08-05T02:32:26;6.38;;;3.72;;
24161;SDS011;12318;51.262;7.066;2022-08-05T02:34:58;9.88;;;4.00;;
24161;SDS011;12318;51.262;7.066;2022-08-05T02:37:27;9.63;;;4.53;;
24161;SDS011;12318;51.262;7.066;2022-08-05T02:39:56;8.93;;;3.80;;
24161;SDS011;12318;51.262;7.066;2022-08-05T02:42:28;12.77;;;5.03;;
24161;SDS011;12318;51.262;7.066;2022-08-05T02:45:08;9.75;;;5.32;;
24161;SDS011;12318;51.262;7.066;2022-08-05T02:47:34;14.90;;;6.43;;
24161;SDS011;12318;51.262;7.066;2022-08-05T02:50:28;17.85;;;7.00;;
24161;SDS011;12318;51.262;7.066;2022-08-05T02:52:54;15.50;;;8.00;;
24161;SDS011;12318;51.262;7.066;2022-08-05T03:00:40;17.60;;;9.88;;
24161;SDS011;12318;51.262;7.066;2022-08-05T03:03:10;17.40;;;11.45;;
24161;SDS011;12318;51.262;7.066;2022-08-05T03:05:48;17.50;;;11.15;;
24161;SDS011;12318;51.262;7.066;2022-08-05T03:08:14;17.65;;;10.98;;
24161;SDS011;12318;51.262;7.066;2022-08-05T03:10:41;26.25;;;15.57;;
24161;SDS011;12318;51.262;7.066;2022-08-05T03:13:12;28.83;;;18.67;;
24161;SDS011;12318;51.262;7.066;2022-08-05T03:15:46;25.25;;;16.75;;
24161;SDS011;12318;51.262;7.066;2022-08-05T03:18:12;26.92;;;15.98;;
24161;SDS011;12318;51.262;7.066;2022-08-05T03:20:39;35.70;;;21.13;;
24161;SDS011;12318;51.262;7.066;2022-08-05T03:23:08;27.83;;;19.73;;
24161;SDS011;12318;51.262;7.066;2022-08-05T03:25:38;31.90;;;21.80;;
24161;SDS011;12318;51.262;7.066;2022-08-05T03:28:06;26.33;;;17.45;;
24161;SDS011;12318;51.262;7.066;2022-08-05T03:30:33;21.30;;;13.18;;
24161;SDS011;12318;51.262;7.066;2022-08-05T03:33:03;17.75;;;12.40;;
24161;SDS011;12318;51.262;7.066;2022-08-05T03:35:30;18.38;;;12.75;;
24161;SDS011;12318;51.262;7.066;2022-08-05T03:38:02;16.98;;;12.68;;
24161;SDS011;12318;51.262;7.066;2022-08-05T03:40:28;18.50;;;12.07;;
24161;SDS011;12318;51.262;7.066;2022-08-05T03:42:54;14.45;;;9.15;;
24161;SDS011;12318;51.262;7.066;2022-08-05T03:45:26;17.48;;;9.35;;
24161;SDS011;12318;51.262;7.066;2022-08-05T03:47:51;17.83;;;11.52;;
24161;SDS011;12318;51.262;7.066;2022-08-05T03:50:17;19.63;;;12.00;;
24161;SDS011;12318;51.262;7.066;2022-08-05T03:52:47;16.70;;;11.52;;
24161;SDS011;12318;51.262;7.066;2022-08-05T03:55:36;19.63;;;11.15;;
24161;SDS011;12318;51.262;7.066;2022-08-05T03:58:14;21.67;;;11.23;;
24161;SDS011;12318;51.262;7.066;2022-08-05T04:00:44;23.45;;;12.50;;
24161;SDS011;12318;51.262;7.066;2022-08-05T04:03:11;17.58;;;11.02;;
24161;SDS011;12318;51.262;7.066;2022-08-05T04:05:40;20.15;;;11.20;;
24161;SDS011;12318;51.262;7.066;2022-08-05T04:08:09;18.67;;;10.23;;
24161;SDS011;12318;51.262;7.066;2022-08-05T04:10:36;16.20;;;11.70;;
24161;SDS011;12318;51.262;7.066;2022-08-05T04:13:04;22.15;;;14.52;;
24161;SDS011;12318;51.262;7.066;2022-08-05T04:15:37;22.45;;;13.43;;
24161;SDS011;12318;51.262;7.066;2022-08-05T04:18:04;23.40;;;14.80;;
24161;SDS011;12318;51.262;7.066;2022-08-05T04:20:33;21.75;;;12.07;;
24161;SDS011;12318;51.262;7.066;2022-08-05T04:22:58;20.42;;;13.73;;
24161;SDS011;12318;51.262;7.066;2022-08-05T04:25:24;21.08;;;13.57;;
24161;SDS011;12318;51.262;7.066;2022-08-05T04:27:53;22.35;;;14.30;;
24161;SDS011;12318;51.262;7.066;2022-08-05T04:30:21;23.88;;;15.20;;
24161;SDS011;12318;51.262;7.066;2022-08-05T04:32:50;24.63;;;13.45;;
24161;SDS011;12318;51.262;7.066;2022-08-05T04:35:15;20.00;;;11.48;;
24161;SDS011;12318;51.262;7.066;2022-08-05T04:37:41;12.93;;;6.78;;
24161;SDS011;12318;51.262;7.066;2022-08-05T04:40:07;11.35;;;7.78;;
24161;SDS011;12318;51.262;7.066;2022-08-05T04:42:33;17.58;;;10.82;;
24161;SDS011;12318;51.262;7.066;2022-08-05T04:47:49;20.08;;;11.73;;
24161;SDS011;12318;51.262;7.066;2022-08-05T04:50:17;18.35;;;12.32;;
24161;SDS011;12318;51.262;7.066;2022-08-05T04:52:43;12.32;;;8.90;;
24161;SDS011;12318;51.262;7.066;2022-08-05T04:58:11;35.47;;;19.85;;
24161;SDS011;12318;51.262;7.066;2022-08-05T05:00:40;28.90;;;18.77;;
24161;SDS011;12318;51.262;7.066;2022-08-05T05:03:07;27.10;;;16.20;;
24161;SDS011;12318;51.262;7.066;2022-08-05T05:05:36;25.75;;;18.25;;
24161;SDS011;12318;51.262;7.066;2022-08-05T05:08:06;35.88;;;23.35;;
24161;SDS011;12318;51.262;7.066;2022-08-05T05:10:37;33.83;;;24.92;;
24161;SDS011;12318;51.262;7.066;2022-08-05T05:13:06;39.05;;;28.27;;
24161;SDS011;12318;51.262;7.066;2022-08-05T05:15:42;30.92;;;24.85;;
24161;SDS011;12318;51.262;7.066;2022-08-05T05:18:13;21.67;;;16.83;;
24161;SDS011;12318;51.262;7.066;2022-08-05T05:20:43;16.23;;;13.13;;
24161;SDS011;12318;51.262;7.066;2022-08-05T05:23:10;40.83;;;26.25;;
24161;SDS011;12318;51.262;7.066;2022-08-05T05:25:40;41.33;;;30.00;;
24161;SDS011;12318;51.262;7.066;2022-08-05T05:28:06;48.15;;;33.42;;
24161;SDS011;12318;51.262;7.066;2022-08-05T05:30:33;46.17;;;30.33;;
24161;SDS011;12318;51.262;7.066;2022-08-05T05:32:59;40.25;;;29.08;;
24161;SDS011;12318;51.262;7.066;2022-08-05T05:35:26;37.65;;;28.77;;
24161;SDS011;12318;51.262;7.066;2022-08-05T05:37:55;28.50;;;22.35;;
24161;SDS011;12318;51.262;7.066;2022-08-05T05:40:24;34.47;;;27.55;;
24161;SDS011;12318;51.262;7.066;2022-08-05T05:42:50;23.38;;;19.40;;
24161;SDS011;12318;51.262;7.066;2022-08-05T05:45:17;27.88;;;22.70;;
24161;SDS011;12318;51.262;7.066;2022-08-05T05:47:44;27.02;;;22.55;;
24161;SDS011;12318;51.262;7.066;2022-08-05T05:50:12;27.52;;;22.73;;
24161;SDS011;12318;51.262;7.066;2022-08-05T05:52:41;27.88;;;22.73;;
24161;SDS011;12318;51.262;7.066;2022-08-05T05:55:08;26.70;;;20.13;;
24161;SDS011;12318;51.262;7.066;2022-08-05T05:57:38;23.10;;;19.67;;
24161;SDS011;12318;51.262;7.066;2022-08-05T06:00:06;29.80;;;22.38;;
24161;SDS011;12318;51.262;7.066;2022-08-05T06:02:34;30.75;;;21.73;;
24161;SDS011;12318;51.262;7.066;2022-08-05T06:05:02;26.20;;;19.65;;
24161;SDS011;12318;51.262;7.066;2022-08-05T06:07:28;32.38;;;23.13;;
24161;SDS011;12318;51.262;7.066;2022-08-05T06:09:57;27.27;;;21.05;;
24161;SDS011;12318;51.262;7.066;2022-08-05T06:12:25;23.83;;;19.85;;
24161;SDS011;12318;51.262;7.066;2022-08-05T06:14:56;25.92;;;21.75;;
24161;SDS011;12318;51.262;7.066;2022-08-05T06:17:22;25.65;;;20.77;;
24161;SDS011;12318;51.262;7.066;2022-08-05T06:19:48;22.90;;;18.92;;
24161;SDS011;12318;51.262;7.066;2022-08-05T06:22:23;21.92;;;16.88;;
24161;SDS011;12318;51.262;7.066;2022-08-05T06:27:54;34.40;;;24.15;;
24161;SDS011;12318;51.262;7.066;2022-08-05T06:30:20;35.20;;;25.95;;
24161;SDS011;12318;51.262;7.066;2022-08-05T06:32:45;25.50;;;19.15;;
24161;SDS011;12318;51.262;7.066;2022-08-05T06:35:14;37.72;;;27.17;;
24161;SDS011;12318;51.262;7.066;2022-08-05T06:37:40;40.38;;;29.65;;
24161;SDS011;12318;51.262;7.066;2022-08-05T06:40:14;40.10;;;28.27;;
24161;SDS011;12318;51.262;7.066;2022-08-05T06:42:48;44.22;;;30.23;;
24161;SDS011;12318;51.262;7.066;2022-08-05T06:45:14;42.13;;;30.95;;
24161;SDS011;12318;51.262;7.066;2022-08-05T06:47:44;39.88;;;29.58;;
24161;SDS011;12318;51.262;7.066;2022-08-05T06:50:09;42.30;;;31.15;;
24161;SDS011;12318;51.262;7.066;2022-08-05T06:52:50;40.35;;;28.10;;
24161;SDS011;12318;51.262;7.066;2022-08-05T06:55:38;28.63;;;21.60;;
24161;SDS011;12318;51.262;7.066;2022-08-05T06:58:25;49.75;;;34.30;;
24161;SDS011;12318;51.262;7.066;2022-08-05T07:01:00;36.78;;;28.80;;
24161;SDS011;12318;51.262;7.066;2022-08-05T07:03:27;69.47;;;42.95;;
24161;SDS011;12318;51.262;7.066;2022-08-05T07:05:53;56.53;;;38.78;;
24161;SDS011;12318;51.262;7.066;2022-08-05T07:08:25;60.72;;;40.95;;
24161;SDS011;12318;51.262;7.066;2022-08-05T07:10:59;72.03;;;43.47;;
24161;SDS011;12318;51.262;7.066;2022-08-05T07:13:32;66.88;;;43.83;;
24161;SDS011;12318;51.262;7.066;2022-08-05T07:16:35;73.60;;;47.95;;
24161;SDS011;12318;51.262;7.066;2022-08-05T07:19:19;45.38;;;34.42;;
24161;SDS011;12318;51.262;7.066;2022-08-05T07:24:30;41.75;;;33.53;;
24161;SDS011;12318;51.262;7.066;2022-08-05T07:27:03;63.20;;;40.80;;
24161;SDS011;12318;51.262;7.066;2022-08-05T07:29:32;40.38;;;30.95;;
24161;SDS011;12318;51.262;7.066;2022-08-05T07:32:02;121.80;;;64.07;;
24161;SDS011;12318;51.262;7.066;2022-08-05T07:34:30;136.73;;;68.28;;
24161;SDS011;12318;51.262;7.066;2022-08-05T07:37:01;91.05;;;54.80;;
24161;SDS011;12318;51.262;7.066;2022-08-05T07:39:29;110.47;;;61.38;;
24161;SDS011;12318;51.262;7.066;2022-08-05T07:41:58;94.35;;;56.55;;
24161;SDS011;12318;51.262;7.066;2022-08-05T07:44:24;107.32;;;63.03;;
24161;SDS011;12318;51.262;7.066;2022-08-05T07:46:57;94.72;;;58.50;;
24161;SDS011;12318;51.262;7.066;2022-08-05T07:49:23;115.25;;;62.30;;
24161;SDS011;12318;51.262;7.066;2022-08-05T07:51:51;98.30;;;58.08;;
24161;SDS011;12318;51.262;7.066;2022-08-05T07:54:19;59.20;;;43.08;;
24161;SDS011;12318;51.262;7.066;2022-08-05T07:56:46;104.18;;;57.25;;
24161;SDS011;12318;51.262;7.066;2022-08-05T07:59:11;61.20;;;40.83;;
24161;SDS011;12318;51.262;7.066;2022-08-05T08:01:37;70.50;;;45.58;;
24161;SDS011;12318;51.262;7.066;2022-08-05T08:04:16;81.50;;;50.83;;
24161;SDS011;12318;51.262;7.066;2022-08-05T08:06:42;77.32;;;47.78;;
24161;SDS011;12318;51.262;7.066;2022-08-05T08:09:13;45.25;;;33.00;;
24161;SDS011;12318;51.262;7.066;2022-08-05T08:11:43;50.88;;;34.13;;
24161;SDS011;12318;51.262;7.066;2022-08-05T08:14:11;48.08;;;33.75;;
24161;SDS011;12318;51.262;7.066;2022-08-05T08:16:37;56.28;;;36.63;;
24161;SDS011;12318;51.262;7.066;2022-08-05T08:19:08;37.90;;;29.15;;
24161;SDS011;12318;51.262;7.066;2022-08-05T08:24:13;33.28;;;25.33;;
24161;SDS011;12318;51.262;7.066;2022-08-05T08:26:42;41.17;;;28.13;;
24161;SDS011;12318;51.262;7.066;2022-08-05T08:29:08;43.08;;;32.22;;
24161;SDS011;12318;51.262;7.066;2022-08-05T08:31:36;50.28;;;33.83;;
24161;SDS011;12318;51.262;7.066;2022-08-05T08:34:02;43.75;;;30.45;;
24161;SDS011;12318;51.262;7.066;2022-08-05T08:36:28;45.75;;;30.23;;
24161;SDS011;12318;51.262;7.066;2022-08-05T08:38:56;43.83;;;27.52;;
24161;SDS011;12318;51.262;7.066;2022-08-05T08:41:33;39.35;;;24.33;;
24161;SDS011;12318;51.262;7.066;2022-08-05T08:44:10;37.00;;;24.42;;
24161;SDS011;12318;51.262;7.066;2022-08-05T08:46:39;35.47;;;24.67;;
24161;SDS011;12318;51.262;7.066;2022-08-05T08:49:10;37.67;;;23.67;;
24161;SDS011;12318;51.262;7.066;2022-08-05T08:51:39;38.03;;;26.17;;
24161;SDS011;12318;51.262;7.066;2022-08-05T08:54:07;32.58;;;22.02;;
24161;SDS011;12318;51.262;7.066;2022-08-05T08:56:37;41.95;;;28.20;;
24161;SDS011;12318;51.262;7.066;2022-08-05T08:59:10;40.40;;;29.35;;
24161;SDS011;12318;51.262;7.066;2022-08-05T09:01:40;39.42;;;26.95;;
24161;SDS011;12318;51.262;7.066;2022-08-05T09:04:07;37.58;;;27.23;;
24161;SDS011;12318;51.262;7.066;2022-08-05T09:07:16;31.33;;;22.05;;
24161;SDS011;12318;51.262;7.066;2022-08-05T09:09:50;21.98;;;16.60;;
24161;SDS011;12318;51.262;7.066;2022-08-05T09:12:28;23.80;;;14.02;;
24161;SDS011;12318;51.262;7.066;2022-08-05T09:15:04;23.95;;;11.75;;
24161;SDS011;12318;51.262;7.066;2022-08-05T09:17:35;22.75;;;10.63;;
24161;SDS011;12318;51.262;7.066;2022-08-05T09:20:01;24.23;;;13.05;;
24161;SDS011;12318;51.262;7.066;2022-08-05T09:22:28;23.95;;;11.60;;
24161;SDS011;12318;51.262;7.066;2022-08-05T09:25:16;23.75;;;12.50;;
24161;SDS011;12318;51.262;7.066;2022-08-05T09:27:44;25.42;;;12.80;;
24161;SDS011;12318;51.262;7.066;2022-08-05T09:30:10;16.95;;;11.50;;
24161;SDS011;12318;51.262;7.066;2022-08-05T09:32:43;21.50;;;11.52;;
24161;SDS011;12318;51.262;7.066;2022-08-05T09:37:51;21.90;;;9.55;;
24161;SDS011;12318;51.262;7.066;2022-08-05T09:40:31;20.30;;;9.85;;
24161;SDS011;12318;51.262;7.066;2022-08-05T09:43:00;16.73;;;8.30;;
24161;SDS011;12318;51.262;7.066;2022-08-05T09:45:56;19.20;;;9.63;;
24161;SDS011;12318;51.262;7.066;2022-08-05T09:48:30;19.48;;;8.52;;
24161;SDS011;12318;51.262;7.066;2022-08-05T09:51:29;19.42;;;9.70;;
24161;SDS011;12318;51.262;7.066;2022-08-05T09:54:01;20.02;;;8.20;;
24161;SDS011;12318;51.262;7.066;2022-08-05T09:56:33;15.55;;;7.70;;
24161;SDS011;12318;51.262;7.066;2022-08-05T09:59:10;13.18;;;6.20;;
24161;SDS011;12318;51.262;7.066;2022-08-05T10:01:55;18.20;;;8.25;;
24161;SDS011;12318;51.262;7.066;2022-08-05T10:05:13;19.13;;;6.93;;
24161;SDS011;12318;51.262;7.066;2022-08-05T10:10:48;17.88;;;9.48;;
24161;SDS011;12318;51.262;7.066;2022-08-05T10:16:07;17.88;;;9.27;;
24161;SDS011;12318;51.262;7.066;2022-08-05T10:19:08;19.70;;;8.10;;
24161;SDS011;12318;51.262;7.066;2022-08-05T10:21:35;15.32;;;8.52;;
24161;SDS011;12318;51.262;7.066;2022-08-05T10:24:01;13.75;;;7.95;;
24161;SDS011;12318;51.262;7.066;2022-08-05T10:26:36;14.30;;;8.13;;
24161;SDS011;12318;51.262;7.066;2022-08-05T10:29:06;18.48;;;9.60;;
24161;SDS011;12318;51.262;7.066;2022-08-05T10:31:47;18.20;;;8.70;;
24161;SDS011;12318;51.262;7.066;2022-08-05T10:34:16;14.93;;;8.07;;
24161;SDS011;12318;51.262;7.066;2022-08-05T10:36:42;12.60;;;8.45;;
24161;SDS011;12318;51.262;7.066;2022-08-05T10:39:13;17.02;;;9.57;;
24161;SDS011;12318;51.262;7.066;2022-08-05T10:41:45;12.15;;;6.70;;
24161;SDS011;12318;51.262;7.066;2022-08-05T10:44:33;19.30;;;9.02;;
24161;SDS011;12318;51.262;7.066;2022-08-05T10:47:08;15.73;;;9.02;;
24161;SDS011;12318;51.262;7.066;2022-08-05T10:55:10;10.05;;;5.35;;
24161;SDS011;12318;51.262;7.066;2022-08-05T11:00:09;10.60;;;5.60;;
24161;SDS011;12318;51.262;7.066;2022-08-05T11:05:37;10.63;;;5.85;;
24161;SDS011;12318;51.262;7.066;2022-08-05T11:08:09;9.57;;;5.70;;
24161;SDS011;12318;51.262;7.066;2022-08-05T11:10:38;10.52;;;5.38;;
24161;SDS011;12318;51.262;7.066;2022-08-05T11:13:07;8.55;;;4.60;;
24161;SDS011;12318;51.262;7.066;2022-08-05T11:15:55;12.00;;;4.43;;
24161;SDS011;12318;51.262;7.066;2022-08-05T11:21:55;7.90;;;3.30;;
24161;SDS011;12318;51.262;7.066;2022-08-05T11:36:20;9.70;;;3.97;;
24161;SDS011;12318;51.262;7.066;2022-08-05T11:45:29;9.30;;;3.30;;
24161;SDS011;12318;51.262;7.066;2022-08-05T11:48:23;8.68;;;3.03;;
24161;SDS011;12318;51.262;7.066;2022-08-05T11:50:49;5.10;;;3.47;;
24161;SDS011;12318;51.262;7.066;2022-08-05T11:53:19;6.10;;;3.42;;
24161;SDS011;12318;51.262;7.066;2022-08-05T11:55:57;6.13;;;3.20;;
24161;SDS011;12318;51.262;7.066;2022-08-05T11:58:34;7.32;;;3.55;;
24161;SDS011;12318;51.262;7.066;2022-08-05T12:01:07;5.78;;;3.53;;
24161;SDS011;12318;51.262;7.066;2022-08-05T12:06:14;5.88;;;3.15;;
24161;SDS011;12318;51.262;7.066;2022-08-05T12:08:51;5.75;;;2.92;;
24161;SDS011;12318;51.262;7.066;2022-08-05T12:11:27;9.32;;;3.90;;
24161;SDS011;12318;51.262;7.066;2022-08-05T12:14:02;8.68;;;3.63;;
24161;SDS011;12318;51.262;7.066;2022-08-05T12:16:58;6.18;;;3.70;;
24161;SDS011;12318;51.262;7.066;2022-08-05T12:19:54;7.13;;;3.25;;
24161;SDS011;12318;51.262;7.066;2022-08-05T12:22:44;7.65;;;3.80;;
24161;SDS011;12318;51.262;7.066;2022-08-05T12:25:15;7.28;;;3.95;;
24161;SDS011;12318;51.262;7.066;2022-08-05T12:27:46;10.95;;;3.55;;
24161;SDS011;12318;51.262;7.066;2022-08-05T12:30:22;10.55;;;3.42;;
24161;SDS011;12318;51.262;7.066;2022-08-05T12:32:50;8.45;;;3.85;;
24161;SDS011;12318;51.262;7.066;2022-08-05T12:35:20;11.95;;;4.00;;
24161;SDS011;12318;51.262;7.066;2022-08-05T12:37:48;8.50;;;3.78;;
24161;SDS011;12318;51.262;7.066;2022-08-05T12:40:14;9.98;;;3.80;;
24161;SDS011;12318;51.262;7.066;2022-08-05T12:42:40;7.68;;;3.40;;
24161;SDS011;12318;51.262;7.066;2022-08-05T12:45:09;7.90;;;3.30;;
24161;SDS011;12318;51.262;7.066;2022-08-05T12:47:41;7.13;;;3.30;;
24161;SDS011;12318;51.262;7.066;2022-08-05T12:50:15;6.15;;;3.28;;
24161;SDS011;12318;51.262;7.066;2022-08-05T12:52:41;8.20;;;3.30;;
24161;SDS011;12318;51.262;7.066;2022-08-05T12:55:20;7.18;;;3.20;;
24161;SDS011;12318;51.262;7.066;2022-08-05T12:57:46;7.07;;;3.50;;
24161;SDS011;12318;51.262;7.066;2022-08-05T13:00:19;7.45;;;3.40;;
24161;SDS011;12318;51.262;7.066;2022-08-05T13:02:46;9.73;;;3.40;;
24161;SDS011;12318;51.262;7.066;2022-08-05T13:05:12;6.50;;;3.15;;
24161;SDS011;12318;51.262;7.066;2022-08-05T13:07:41;10.50;;;2.95;;
24161;SDS011;12318;51.262;7.066;2022-08-05T13:10:12;5.18;;;2.60;;
24161;SDS011;12318;51.262;7.066;2022-08-05T13:12:40;5.03;;;2.88;;
24161;SDS011;12318;51.262;7.066;2022-08-05T13:15:11;7.05;;;3.15;;
24161;SDS011;12318;51.262;7.066;2022-08-05T13:17:37;7.78;;;3.00;;
24161;SDS011;12318;51.262;7.066;2022-08-05T13:20:05;7.88;;;2.80;;
24161;SDS011;12318;51.262;7.066;2022-08-05T13:22:40;6.30;;;3.10;;
24161;SDS011;12318;51.262;7.066;2022-08-05T13:25:10;9.52;;;3.00;;
24161;SDS011;12318;51.262;7.066;2022-08-05T13:30:21;5.93;;;2.65;;
24161;SDS011;12318;51.262;7.066;2022-08-05T13:32:49;8.02;;;2.55;;
24161;SDS011;12318;51.262;7.066;2022-08-05T13:35:15;5.93;;;2.65;;
24161;SDS011;12318;51.262;7.066;2022-08-05T13:37:42;5.40;;;2.70;;
24161;SDS011;12318;51.262;7.066;2022-08-05T13:40:09;5.32;;;2.67;;
24161;SDS011;12318;51.262;7.066;2022-08-05T13:42:36;10.52;;;2.60;;
24161;SDS011;12318;51.262;7.066;2022-08-05T13:45:02;4.82;;;2.45;;
24161;SDS011;12318;51.262;7.066;2022-08-05T13:47:28;5.25;;;2.58;;
24161;SDS011;12318;51.262;7.066;2022-08-05T13:49:54;4.82;;;2.10;;
24161;SDS011;12318;51.262;7.066;2022-08-05T13:52:24;4.38;;;2.10;;
24161;SDS011;12318;51.262;7.066;2022-08-05T13:54:51;8.38;;;2.30;;
24161;SDS011;12318;51.262;7.066;2022-08-05T13:57:18;5.13;;;2.10;;
24161;SDS011;12318;51.262;7.066;2022-08-05T13:59:51;4.97;;;1.90;;
24161;SDS011;12318;51.262;7.066;2022-08-05T14:02:16;6.03;;;1.70;;
24161;SDS011;12318;51.262;7.066;2022-08-05T14:04:43;4.60;;;1.92;;
24161;SDS011;12318;51.262;7.066;2022-08-05T14:07:29;5.57;;;1.80;;
24161;SDS011;12318;51.262;7.066;2022-08-05T14:10:05;3.88;;;1.75;;
24161;SDS011;12318;51.262;7.066;2022-08-05T14:12:32;4.88;;;1.67;;
24161;SDS011;12318;51.262;7.066;2022-08-05T14:14:58;5.53;;;1.63;;
24161;SDS011;12318;51.262;7.066;2022-08-05T14:17:24;7.75;;;2.53;;
24161;SDS011;12318;51.262;7.066;2022-08-05T14:19:52;8.27;;;2.03;;
24161;SDS011;12318;51.262;7.066;2022-08-05T14:22:18;7.88;;;2.10;;
24161;SDS011;12318;51.262;7.066;2022-08-05T14:24:47;5.18;;;1.73;;
24161;SDS011;12318;51.262;7.066;2022-08-05T14:27:14;6.25;;;1.52;;
24161;SDS011;12318;51.262;7.066;2022-08-05T14:29:46;4.50;;;1.45;;
24161;SDS011;12318;51.262;7.066;2022-08-05T14:32:12;9.68;;;1.88;;
24161;SDS011;12318;51.262;7.066;2022-08-05T14:34:37;5.03;;;1.90;;
24161;SDS011;12318;51.262;7.066;2022-08-05T14:37:05;4.80;;;1.73;;
24161;SDS011;12318;51.262;7.066;2022-08-05T14:39:31;9.32;;;1.85;;
24161;SDS011;12318;51.262;7.066;2022-08-05T14:41:57;5.20;;;2.00;;
24161;SDS011;12318;51.262;7.066;2022-08-05T14:44:23;12.20;;;1.67;;
24161;SDS011;12318;51.262;7.066;2022-08-05T14:46:49;3.40;;;1.50;;
24161;SDS011;12318;51.262;7.066;2022-08-05T14:49:16;5.40;;;1.83;;
24161;SDS011;12318;51.262;7.066;2022-08-05T14:51:41;4.90;;;1.65;;
24161;SDS011;12318;51.262;7.066;2022-08-05T14:54:07;3.58;;;1.40;;
24161;SDS011;12318;51.262;7.066;2022-08-05T14:56:34;9.07;;;1.73;;
24161;SDS011;12318;51.262;7.066;2022-08-05T14:59:15;8.85;;;1.77;;
24161;SDS011;12318;51.262;7.066;2022-08-05T15:01:42;6.78;;;1.33;;
24161;SDS011;12318;51.262;7.066;2022-08-05T15:04:07;4.47;;;1.20;;
24161;SDS011;12318;51.262;7.066;2022-08-05T15:06:35;6.38;;;1.60;;
24161;SDS011;12318;51.262;7.066;2022-08-05T15:09:01;5.10;;;1.13;;
24161;SDS011;12318;51.262;7.066;2022-08-05T15:11:34;5.78;;;1.25;;
24161;SDS011;12318;51.262;7.066;2022-08-05T15:14:00;5.07;;;1.23;;
24161;SDS011;12318;51.262;7.066;2022-08-05T15:16:25;6.28;;;1.15;;
24161;SDS011;12318;51.262;7.066;2022-08-05T15:18:51;7.72;;;1.05;;
24161;SDS011;12318;51.262;7.066;2022-08-05T15:21:17;3.30;;;1.30;;
24161;SDS011;12318;51.262;7.066;2022-08-05T15:23:43;2.78;;;0.93;;
24161;SDS011;12318;51.262;7.066;2022-08-05T15:26:08;5.07;;;0.95;;
24161;SDS011;12318;51.262;7.066;2022-08-05T15:28:34;6.18;;;0.82;;
24161;SDS011;12318;51.262;7.066;2022-08-05T15:31:01;3.53;;;1.10;;
24161;SDS011;12318;51.262;7.066;2022-08-05T15:33:27;3.55;;;0.80;;
24161;SDS011;12318;51.262;7.066;2022-08-05T15:35:52;4.65;;;1.05;;
24161;SDS011;12318;51.262;7.066;2022-08-05T15:38:18;2.42;;;0.70;;
24161;SDS011;12318;51.262;7.066;2022-08-05T15:40:46;2.10;;;0.77;;
24161;SDS011;12318;51.262;7.066;2022-08-05T15:43:12;3.47;;;0.80;;
24161;SDS011;12318;51.262;7.066;2022-08-05T15:45:41;2.45;;;0.68;;
24161;SDS011;12318;51.262;7.066;2022-08-05T15:48:11;4.30;;;1.00;;
24161;SDS011;12318;51.262;7.066;2022-08-05T15:50:37;3.42;;;1.05;;
24161;SDS011;12318;51.262;7.066;2022-08-05T15:53:03;6.15;;;0.93;;
24161;SDS011;12318;51.262;7.066;2022-08-05T15:55:28;7.20;;;0.93;;
24161;SDS011;12318;51.262;7.066;2022-08-05T15:57:54;2.58;;;0.70;;
24161;SDS011;12318;51.262;7.066;2022-08-05T16:03:24;1.15;;;0.50;;
24161;SDS011;12318;51.262;7.066;2022-08-05T16:05:51;6.90;;;0.60;;
24161;SDS011;12318;51.262;7.066;2022-08-05T16:11:48;1.63;;;0.47;;
24161;SDS011;12318;51.262;7.066;2022-08-05T16:14:14;2.90;;;0.77;;
24161;SDS011;12318;51.262;7.066;2022-08-05T16:16:39;5.13;;;0.65;;
24161;SDS011;12318;51.262;7.066;2022-08-05T16:19:05;2.67;;;0.40;;
24161;SDS011;12318;51.262;7.066;2022-08-05T16:21:31;0.90;;;0.40;;
24161;SDS011;12318;51.262;7.066;2022-08-05T16:23:57;3.90;;;0.60;;
24161;SDS011;12318;51.262;7.066;2022-08-05T16:26:22;2.67;;;0.50;;
24161;SDS011;12318;51.262;7.066;2022-08-05T16:28:49;2.05;;;0.50;;
24161;SDS011;12318;51.262;7.066;2022-08-05T16:31:21;5.38;;;0.60;;
24161;SDS011;12318;51.262;7.066;2022-08-05T16:33:47;1.27;;;0.52;;